createdAt,value
2023-10-23T00:00:29.802Z,11.40
2023-10-23T00:05:52.851Z,11.40
2023-10-23T00:10:55.868Z,11.40
2023-10-23T00:15:58.972Z,11.41
2023-10-23T00:21:02.087Z,11.40
2023-10-23T00:26:07.140Z,11.40
2023-10-23T00:31:10.165Z,11.40
2023-10-23T00:36:13.350Z,11.41
2023-10-23T00:41:16.554Z,11.42
2023-10-23T00:46:21.510Z,11.42
2023-10-23T00:51:24.606Z,11.43
2023-10-23T00:56:28.627Z,11.45
2023-10-23T01:01:34.428Z,11.46
2023-10-23T01:06:37.592Z,11.48
2023-10-23T01:11:40.553Z,11.47
2023-10-23T01:16:43.560Z,11.48
2023-10-23T01:21:46.590Z,11.47
2023-10-23T01:26:49.991Z,11.47
2023-10-23T01:31:52.900Z,11.47
2023-10-23T01:36:55.895Z,11.46
2023-10-23T01:41:59.003Z,11.45
2023-10-23T01:47:02.005Z,11.44
2023-10-23T01:52:05.751Z,11.44
2023-10-23T01:57:08.939Z,11.42
2023-10-23T02:02:12.374Z,11.41
2023-10-23T02:07:15.363Z,11.40
2023-10-23T02:12:18.405Z,11.40
2023-10-23T02:17:21.978Z,11.39
2023-10-23T02:22:25.426Z,11.38
2023-10-23T02:27:28.536Z,11.36
2023-10-23T02:32:31.656Z,11.35
2023-10-23T02:37:34.831Z,11.33
2023-10-23T02:42:38.181Z,11.31
2023-10-23T02:47:41.476Z,11.29
2023-10-23T02:52:44.573Z,11.25
2023-10-23T02:57:47.738Z,11.23
2023-10-23T03:02:51.310Z,11.20
2023-10-23T03:07:54.926Z,11.17
2023-10-23T03:13:01.408Z,11.16
2023-10-23T03:18:06.709Z,11.13
2023-10-23T03:23:09.984Z,11.11
2023-10-23T03:28:13.251Z,11.06
2023-10-23T03:33:16.510Z,10.98
2023-10-23T03:38:19.726Z,10.93
2023-10-23T03:43:22.726Z,10.87
2023-10-23T03:48:25.852Z,10.84
2023-10-23T03:53:29.163Z,10.80
2023-10-23T03:58:32.266Z,10.77
2023-10-23T04:03:35.357Z,10.68
2023-10-23T04:08:39.085Z,10.52
2023-10-23T04:13:42.406Z,10.33
2023-10-23T04:18:45.738Z,10.15
2023-10-23T04:23:48.928Z,10.67
2023-10-23T04:28:52.152Z,10.25
2023-10-23T04:33:55.373Z,9.96
2023-10-23T04:38:58.469Z,9.84
2023-10-23T04:44:01.654Z,9.84
2023-10-23T04:49:05.228Z,9.88
2023-10-23T04:54:08.527Z,9.93
2023-10-23T04:59:11.623Z,9.98
2023-10-23T05:04:14.932Z,10.02
2023-10-23T05:09:18.161Z,10.06
2023-10-23T05:14:21.279Z,10.08
2023-10-23T05:19:24.210Z,10.10
2023-10-23T05:24:28.307Z,10.12
2023-10-23T05:29:31.413Z,10.14
2023-10-23T05:34:35.073Z,10.16
2023-10-23T05:39:38.436Z,10.17
2023-10-23T05:44:41.993Z,10.17
2023-10-23T05:49:45.267Z,10.19
2023-10-23T05:54:48.492Z,10.21
2023-10-23T05:59:51.691Z,10.22
2023-10-23T06:04:55.004Z,10.24
2023-10-23T06:09:59.770Z,10.25
2023-10-23T06:15:03.387Z,10.25
2023-10-23T06:20:07.409Z,10.21
2023-10-23T06:25:10.514Z,10.24
2023-10-23T06:30:13.982Z,10.29
2023-10-23T06:35:17.559Z,10.34
2023-10-23T06:40:20.647Z,10.38
2023-10-23T06:45:25.920Z,10.38
2023-10-23T06:50:34.025Z,10.42
2023-10-23T06:55:37.137Z,10.50
2023-10-23T07:00:40.238Z,10.70
2023-10-23T07:05:43.801Z,12.10
2023-10-23T07:10:46.885Z,13.14
2023-10-23T07:15:53.185Z,12.92
2023-10-23T07:20:58.206Z,12.60
2023-10-23T07:26:05.345Z,12.35
2023-10-23T07:31:10.233Z,12.12
2023-10-23T07:36:14.902Z,12.06
2023-10-23T07:41:18.026Z,11.97
2023-10-23T07:46:21.330Z,11.96
2023-10-23T07:51:24.537Z,12.24
2023-10-23T07:56:27.753Z,12.71
2023-10-23T08:01:30.907Z,13.22
2023-10-23T08:06:34.188Z,13.43
2023-10-23T08:11:37.481Z,13.52
2023-10-23T08:16:40.868Z,13.80
2023-10-23T08:21:44.472Z,13.95
2023-10-23T08:26:47.743Z,13.89
2023-10-23T08:31:51.011Z,13.98
2023-10-23T08:36:54.197Z,14.18
2023-10-23T08:41:58.491Z,14.25
2023-10-23T08:47:01.827Z,14.35
2023-10-23T08:52:11.029Z,14.39
2023-10-23T08:57:16.329Z,14.40
2023-10-23T09:02:19.840Z,14.34
2023-10-23T09:07:23.097Z,14.27
2023-10-23T09:12:37.754Z,14.24
2023-10-23T09:17:42.205Z,14.20
2023-10-23T09:22:48.970Z,14.30
2023-10-23T09:27:53.631Z,14.48
2023-10-23T09:32:56.878Z,14.58
2023-10-23T09:38:00.136Z,14.72
2023-10-23T09:43:03.499Z,14.85
2023-10-23T09:48:07.941Z,14.93
2023-10-23T09:53:12.952Z,15.02
2023-10-23T09:58:18.822Z,15.03
2023-10-23T10:03:24.769Z,15.01
2023-10-23T10:08:34.567Z,15.08
2023-10-23T10:13:38.331Z,15.16
2023-10-23T10:18:44.021Z,15.27
2023-10-23T10:23:47.476Z,15.45
2023-10-23T10:28:56.175Z,15.70
2023-10-23T10:34:28.145Z,15.83
2023-10-23T10:39:54.181Z,15.80
2023-10-23T10:45:14.866Z,15.68
2023-10-23T10:50:40.164Z,15.67
2023-10-23T10:55:46.542Z,15.75
2023-10-23T11:00:49.866Z,15.82
2023-10-23T11:05:54.230Z,16.00
2023-10-23T11:11:01.197Z,16.06
2023-10-23T11:16:06.073Z,16.00
2023-10-23T11:21:10.625Z,16.05
2023-10-23T11:26:13.729Z,16.57
2023-10-23T11:31:16.824Z,17.12
2023-10-23T11:36:22.005Z,17.40
2023-10-23T11:41:28.679Z,19.25
2023-10-23T11:46:32.417Z,19.97
2023-10-23T11:51:35.638Z,17.93
2023-10-23T11:56:38.854Z,16.90
2023-10-23T12:01:43.015Z,16.53
2023-10-23T12:06:46.324Z,16.44
2023-10-23T12:11:50.116Z,16.62
2023-10-23T12:16:53.257Z,16.79
2023-10-23T12:21:56.397Z,16.92
2023-10-23T12:26:59.759Z,16.92
2023-10-23T12:32:05.919Z,16.82
2023-10-23T12:37:09.400Z,16.63
2023-10-23T12:42:12.593Z,16.44
2023-10-23T12:47:15.989Z,16.28
2023-10-23T12:52:20.232Z,16.24
2023-10-23T12:57:23.422Z,16.17
2023-10-23T13:02:27.250Z,16.12
2023-10-23T13:07:30.423Z,16.10
2023-10-23T13:12:33.771Z,16.21
2023-10-23T13:17:36.982Z,16.81
2023-10-23T13:22:40.274Z,17.33
2023-10-23T13:27:50.287Z,17.72
2023-10-23T13:32:53.533Z,18.16
2023-10-23T13:37:56.791Z,18.25
2023-10-23T13:42:59.960Z,16.75
2023-10-23T13:48:04.252Z,16.24
2023-10-23T13:53:09.154Z,15.80
2023-10-23T13:58:12.887Z,15.47
2023-10-23T14:03:16.307Z,15.40
2023-10-23T14:08:19.639Z,15.54
2023-10-23T14:13:38.911Z,15.71
2023-10-23T14:18:42.249Z,15.83
2023-10-23T14:23:45.690Z,15.81
2023-10-23T14:28:48.879Z,15.79
2023-10-23T14:33:52.428Z,15.66
2023-10-23T14:38:55.614Z,14.96
2023-10-23T14:43:59.797Z,14.46
2023-10-23T14:49:04.359Z,14.08
2023-10-23T14:54:07.496Z,13.76
2023-10-23T14:59:10.556Z,13.49
2023-10-23T15:04:13.934Z,13.21
2023-10-23T15:09:17.235Z,12.95
2023-10-23T15:14:20.349Z,12.77
2023-10-23T15:19:23.827Z,12.73
2023-10-23T15:24:26.976Z,12.58
2023-10-23T15:29:30.293Z,12.39
2023-10-23T15:34:33.805Z,12.23
2023-10-23T15:39:42.170Z,12.04
2023-10-23T15:44:45.659Z,11.67
2023-10-23T15:49:48.875Z,11.32
2023-10-23T15:54:52.226Z,11.06
2023-10-23T15:59:55.317Z,11.03
2023-10-23T16:04:58.406Z,11.02
2023-10-23T16:10:01.967Z,10.96
2023-10-23T16:15:06.019Z,10.91
2023-10-23T16:20:11.081Z,10.95
2023-10-23T16:25:14.286Z,11.16
2023-10-23T16:30:17.439Z,11.28
2023-10-23T16:35:21.732Z,11.31
2023-10-23T16:40:25.084Z,11.18
2023-10-23T16:45:33.077Z,10.92
2023-10-23T16:50:36.536Z,10.76
2023-10-23T16:55:39.746Z,10.65
2023-10-23T17:00:43.084Z,10.53
2023-10-23T17:05:46.147Z,10.42
2023-10-23T17:10:49.377Z,10.34
2023-10-23T17:15:53.110Z,10.27
2023-10-23T17:20:57.136Z,10.20
2023-10-23T17:26:01.070Z,10.12
2023-10-23T17:31:04.914Z,10.04
2023-10-23T17:36:08.733Z,9.91
2023-10-23T17:41:19.275Z,9.82
2023-10-23T17:46:22.478Z,9.74
2023-10-23T17:51:25.714Z,9.63
2023-10-23T17:56:28.818Z,9.54
2023-10-23T18:01:32.232Z,9.37
2023-10-23T18:06:35.546Z,8.98
2023-10-23T18:11:41.795Z,8.62
2023-10-23T18:16:46.313Z,8.36
2023-10-23T18:21:49.688Z,8.18
2023-10-23T18:26:52.885Z,8.07
2023-10-23T18:31:56.039Z,7.97
2023-10-23T18:36:59.154Z,7.90
2023-10-23T18:42:02.603Z,7.79
2023-10-23T18:47:08.715Z,7.65
2023-10-23T18:52:12.074Z,7.53
2023-10-23T18:57:15.338Z,7.43
2023-10-23T19:02:18.762Z,7.31
2023-10-23T19:07:22.209Z,7.20
2023-10-23T19:12:25.687Z,7.10
2023-10-23T19:17:39.735Z,7.00
2023-10-23T19:22:44.612Z,6.88
2023-10-23T19:27:47.631Z,6.80
2023-10-23T19:32:52.754Z,6.74
2023-10-23T19:37:56.225Z,6.67
2023-10-23T19:43:13.691Z,6.58
2023-10-23T19:48:17.389Z,6.49
2023-10-23T19:53:21.609Z,6.40
2023-10-23T19:58:26.065Z,6.32
2023-10-23T20:03:29.169Z,6.27
2023-10-23T20:08:32.589Z,6.23
2023-10-23T20:13:36.045Z,6.23
2023-10-23T20:18:40.307Z,6.20
2023-10-23T20:23:43.455Z,6.14
2023-10-23T20:28:46.671Z,6.10
2023-10-23T20:33:52.446Z,6.01
2023-10-23T20:38:56.265Z,5.93
2023-10-23T20:43:59.579Z,5.87
2023-10-23T20:49:03.023Z,5.79
2023-10-23T20:54:06.387Z,5.70
2023-10-23T20:59:10.026Z,5.64
2023-10-23T21:04:13.226Z,5.58
2023-10-23T21:09:16.434Z,5.50
2023-10-23T21:14:19.817Z,5.34
2023-10-23T21:19:23.047Z,5.20
2023-10-23T21:24:26.260Z,5.11
2023-10-23T21:29:29.375Z,4.96
2023-10-23T21:34:32.561Z,4.80
2023-10-23T21:39:35.796Z,4.70
2023-10-23T21:44:38.890Z,4.60
2023-10-23T21:49:42.210Z,4.49
2023-10-23T21:54:46.004Z,4.42
2023-10-23T21:59:49.590Z,4.50
2023-10-23T22:04:53.174Z,4.44
2023-10-23T22:09:56.899Z,4.38
2023-10-23T22:15:00.416Z,4.32
2023-10-23T22:20:04.859Z,4.22
2023-10-23T22:25:09.469Z,4.12
2023-10-23T22:30:12.822Z,4.06
2023-10-23T22:35:15.935Z,3.97
2023-10-23T22:40:19.429Z,3.84
2023-10-23T22:45:22.668Z,3.71
2023-10-23T22:50:26.153Z,3.56
2023-10-23T22:55:29.771Z,3.42
2023-10-23T23:00:33.468Z,3.39
2023-10-23T23:05:40.776Z,3.35
2023-10-23T23:10:44.390Z,3.31
2023-10-23T23:15:51.173Z,3.26
2023-10-23T23:20:57.446Z,3.19
2023-10-23T23:26:00.555Z,3.13
2023-10-23T23:31:03.774Z,3.10
2023-10-23T23:36:07.390Z,3.06
2023-10-23T23:41:10.484Z,3.00
2023-10-23T23:46:13.653Z,2.94
2023-10-23T23:51:17.106Z,2.89
2023-10-23T23:56:20.112Z,2.85
